FDB4PD OOMS-OMDB
Flight info
| Callsign | FDB4PD |
|---|---|
| Flight time | 0h 38m |
| Altitude | 20000 |
| Route | MCT T508 SOLUD P574 IMPED |
| Aircraft | B738/M-SDE2E3FGHIRWXY/LB1 |
Departure
| Time | 2026-04-23 13:55 |
|---|---|
| Airport | Muscat International Airport (OOMS) |
Arrival
| Time | 2026-04-23 14:34 |
|---|---|
| Airport | Dubai International Airport (OMDB) |
| Time | Latitude | Longitude | Altitude | Speed | Heading |
|---|---|---|---|---|---|
| 2026-04-23 13:40 | 23.60391 | 58.28749 | 33 ft | 0 kts | 266° |
| 2026-04-23 13:45 | 23.60391 | 58.28754 | 33 ft | 2 kts | 266° |
| 2026-04-23 13:45 | 23.60392 | 58.28772 | 33 ft | 2 kts | 266° |
| 2026-04-23 13:46 | 23.60393 | 58.28790 | 33 ft | 2 kts | 266° |
| 2026-04-23 13:46 | 23.60394 | 58.28806 | 33 ft | 2 kts | 266° |
| 2026-04-23 13:46 | 23.60395 | 58.28813 | 33 ft | 1 kts | 266° |
| 2026-04-23 13:46 | 23.60395 | 58.28827 | 33 ft | 2 kts | 266° |
| 2026-04-23 13:47 | 23.60396 | 58.28839 | 33 ft | 1 kts | 266° |
| 2026-04-23 13:47 | 23.60396 | 58.28845 | 33 ft | 1 kts | 266° |
| 2026-04-23 13:47 | 23.60397 | 58.28857 | 33 ft | 2 kts | 266° |
| 2026-04-23 13:47 | 23.60397 | 58.28860 | 33 ft | 0 kts | 266° |
| 2026-04-23 13:48 | 23.60402 | 58.28855 | 33 ft | 3 kts | 316° |
| 2026-04-23 13:49 | 23.60442 | 58.28851 | 33 ft | 11 kts | 355° |
| 2026-04-23 13:49 | 23.60529 | 58.28843 | 33 ft | 11 kts | 354° |
| 2026-04-23 13:49 | 23.60570 | 58.28782 | 33 ft | 13 kts | 272° |
| 2026-04-23 13:49 | 23.60560 | 58.28644 | 33 ft | 24 kts | 265° |
| 2026-04-23 13:50 | 23.60543 | 58.28435 | 33 ft | 29 kts | 265° |
| 2026-04-23 13:50 | 23.60526 | 58.28224 | 33 ft | 27 kts | 265° |
| 2026-04-23 13:50 | 23.60510 | 58.28025 | 33 ft | 25 kts | 265° |
| 2026-04-23 13:50 | 23.60494 | 58.27832 | 33 ft | 28 kts | 265° |
| 2026-04-23 13:51 | 23.60476 | 58.27607 | 33 ft | 30 kts | 265° |
| 2026-04-23 13:51 | 23.60459 | 58.27388 | 33 ft | 28 kts | 265° |
| 2026-04-23 13:51 | 23.60442 | 58.27182 | 33 ft | 26 kts | 265° |
| 2026-04-23 13:51 | 23.60427 | 58.26989 | 33 ft | 25 kts | 265° |
| 2026-04-23 13:52 | 23.60412 | 58.26809 | 33 ft | 23 kts | 265° |
| 2026-04-23 13:52 | 23.60398 | 58.26637 | 33 ft | 22 kts | 265° |
| 2026-04-23 13:52 | 23.60385 | 58.26471 | 33 ft | 22 kts | 265° |
| 2026-04-23 13:52 | 23.60372 | 58.26309 | 31 ft | 21 kts | 264° |
| 2026-04-23 13:53 | 23.60359 | 58.26151 | 33 ft | 20 kts | 265° |
| 2026-04-23 13:53 | 23.60347 | 58.25999 | 33 ft | 20 kts | 265° |
| 2026-04-23 13:53 | 23.60335 | 58.25853 | 33 ft | 17 kts | 265° |
| 2026-04-23 13:53 | 23.60332 | 58.25761 | 33 ft | 11 kts | 284° |
| 2026-04-23 13:54 | 23.60438 | 58.25715 | 33 ft | 23 kts | 355° |
| 2026-04-23 13:54 | 23.60578 | 58.25785 | 32 ft | 26 kts | 60° |
| 2026-04-23 13:54 | 23.60621 | 58.26141 | 32 ft | 80 kts | 85° |
| 2026-04-23 13:54 | 23.60689 | 58.26985 | 36 ft | 142 kts | 85° |
| 2026-04-23 13:55 | 23.60782 | 58.28236 | 205 ft | 178 kts | 85° |
| 2026-04-23 13:55 | 23.60853 | 58.29544 | 1087 ft | 172 kts | 86° |
| 2026-04-23 13:55 | 23.60955 | 58.30872 | 1726 ft | 181 kts | 78° |
| 2026-04-23 13:55 | 23.61595 | 58.32147 | 2015 ft | 209 kts | 42° |
| 2026-04-23 13:56 | 23.62952 | 58.32887 | 2222 ft | 233 kts | 9° |
| 2026-04-23 13:56 | 23.64634 | 58.32725 | 2393 ft | 259 kts | 339° |
| 2026-04-23 13:56 | 23.66130 | 58.31583 | 2847 ft | 270 kts | 309° |
| 2026-04-23 13:56 | 23.66968 | 58.29756 | 3486 ft | 273 kts | 281° |
| 2026-04-23 13:57 | 23.67188 | 58.27701 | 4219 ft | 274 kts | 273° |
| 2026-04-23 13:57 | 23.67293 | 58.25616 | 4926 ft | 277 kts | 272° |
| 2026-04-23 13:57 | 23.67379 | 58.23508 | 5630 ft | 280 kts | 272° |
| 2026-04-23 13:57 | 23.67457 | 58.21375 | 6332 ft | 283 kts | 272° |
| 2026-04-23 13:58 | 23.67521 | 58.19221 | 7012 ft | 285 kts | 268° |
| 2026-04-23 13:58 | 23.67091 | 58.17120 | 7688 ft | 286 kts | 244° |
| 2026-04-23 13:58 | 23.66349 | 58.15110 | 8395 ft | 289 kts | 260° |
| 2026-04-23 13:58 | 23.66431 | 58.12928 | 9092 ft | 292 kts | 285° |
| 2026-04-23 13:59 | 23.67240 | 58.10890 | 9794 ft | 295 kts | 297° |
| 2026-04-23 13:59 | 23.68268 | 58.08930 | 10344 ft | 304 kts | 300° |
| 2026-04-23 13:59 | 23.69396 | 58.06882 | 10499 ft | 326 kts | 300° |
| 2026-04-23 13:59 | 23.70606 | 58.04701 | 10717 ft | 344 kts | 300° |
| 2026-04-23 14:00 | 23.71429 | 58.03210 | 11023 ft | 349 kts | 300° |
| 2026-04-23 14:00 | 23.73104 | 58.00149 | 11866 ft | 352 kts | 300° |
| 2026-04-23 14:00 | 23.74356 | 57.97843 | 12533 ft | 355 kts | 299° |
| 2026-04-23 14:00 | 23.75613 | 57.95514 | 13183 ft | 358 kts | 299° |
| 2026-04-23 14:01 | 23.76881 | 57.93156 | 13834 ft | 361 kts | 299° |
| 2026-04-23 14:01 | 23.78152 | 57.90786 | 14456 ft | 363 kts | 299° |
| 2026-04-23 14:01 | 23.79432 | 57.88397 | 15109 ft | 366 kts | 298° |
| 2026-04-23 14:01 | 23.80720 | 57.85991 | 15757 ft | 368 kts | 298° |
| 2026-04-23 14:02 | 23.82011 | 57.83578 | 16462 ft | 368 kts | 298° |
| 2026-04-23 14:02 | 23.83296 | 57.81174 | 17292 ft | 365 kts | 298° |
| 2026-04-23 14:02 | 23.84567 | 57.78797 | 18149 ft | 361 kts | 298° |
| 2026-04-23 14:02 | 23.85812 | 57.76466 | 18855 ft | 358 kts | 298° |
| 2026-04-23 14:03 | 23.87064 | 57.74120 | 19520 ft | 358 kts | 298° |
| 2026-04-23 14:03 | 23.88310 | 57.71784 | 19866 ft | 354 kts | 298° |
| 2026-04-23 14:03 | 23.89551 | 57.69457 | 19984 ft | 354 kts | 298° |
| 2026-04-23 14:03 | 23.90790 | 57.67131 | 19994 ft | 354 kts | 298° |
| 2026-04-23 14:04 | 23.92028 | 57.64808 | 20003 ft | 353 kts | 298° |
| 2026-04-23 14:04 | 23.93262 | 57.62490 | 20007 ft | 353 kts | 298° |
| 2026-04-23 14:04 | 23.94494 | 57.60173 | 20006 ft | 352 kts | 298° |
| 2026-04-23 14:04 | 23.95726 | 57.57858 | 20007 ft | 353 kts | 298° |
| 2026-04-23 14:05 | 23.96963 | 57.55532 | 19908 ft | 355 kts | 298° |
| 2026-04-23 14:05 | 23.98203 | 57.53198 | 19837 ft | 355 kts | 298° |
| 2026-04-23 14:05 | 23.99440 | 57.50871 | 19811 ft | 353 kts | 298° |
| 2026-04-23 14:05 | 24.00806 | 57.48637 | 19807 ft | 354 kts | 304° |
| 2026-04-23 14:06 | 24.02315 | 57.46503 | 19812 ft | 355 kts | 306° |
| 2026-04-23 14:06 | 24.03851 | 57.44381 | 19810 ft | 356 kts | 306° |
| 2026-04-23 14:06 | 24.05391 | 57.42263 | 19808 ft | 356 kts | 306° |
| 2026-04-23 14:06 | 24.06928 | 57.40142 | 19807 ft | 356 kts | 306° |
| 2026-04-23 14:07 | 24.08463 | 57.38014 | 19806 ft | 356 kts | 306° |
| 2026-04-23 14:07 | 24.11521 | 57.33760 | 19807 ft | 355 kts | 306° |
| 2026-04-23 14:07 | 24.13043 | 57.31629 | 19811 ft | 355 kts | 306° |
| 2026-04-23 14:08 | 24.14563 | 57.29499 | 19812 ft | 355 kts | 306° |
| 2026-04-23 14:08 | 24.16084 | 57.27367 | 19812 ft | 355 kts | 306° |
| 2026-04-23 14:08 | 24.17600 | 57.25240 | 19811 ft | 355 kts | 306° |
| 2026-04-23 14:08 | 24.19118 | 57.23109 | 19813 ft | 354 kts | 306° |
| 2026-04-23 14:09 | 24.20633 | 57.20982 | 19814 ft | 354 kts | 305° |
| 2026-04-23 14:09 | 24.22146 | 57.18858 | 19813 ft | 354 kts | 305° |
| 2026-04-23 14:09 | 24.23639 | 57.16760 | 19813 ft | 354 kts | 305° |
| 2026-04-23 14:09 | 24.25151 | 57.14635 | 19814 ft | 353 kts | 305° |
| 2026-04-23 14:10 | 24.26660 | 57.12513 | 19816 ft | 353 kts | 305° |
| 2026-04-23 14:10 | 24.28169 | 57.10389 | 19816 ft | 353 kts | 305° |
| 2026-04-23 14:10 | 24.29679 | 57.08264 | 19818 ft | 353 kts | 305° |
| 2026-04-23 14:10 | 24.31187 | 57.06141 | 19817 ft | 353 kts | 305° |
| 2026-04-23 14:11 | 24.32694 | 57.04019 | 19816 ft | 353 kts | 305° |
| 2026-04-23 14:11 | 24.34199 | 57.01897 | 19816 ft | 353 kts | 305° |
| 2026-04-23 14:11 | 24.35706 | 56.99773 | 19813 ft | 352 kts | 305° |
| 2026-04-23 14:11 | 24.37210 | 56.97650 | 19813 ft | 352 kts | 305° |
| 2026-04-23 14:12 | 24.38713 | 56.95530 | 19813 ft | 352 kts | 305° |
| 2026-04-23 14:12 | 24.40216 | 56.93408 | 19813 ft | 352 kts | 305° |
| 2026-04-23 14:12 | 24.41720 | 56.91284 | 19811 ft | 352 kts | 305° |
| 2026-04-23 14:12 | 24.43221 | 56.89163 | 19812 ft | 352 kts | 305° |
| 2026-04-23 14:13 | 24.44720 | 56.87043 | 19810 ft | 352 kts | 305° |
| 2026-04-23 14:13 | 24.46219 | 56.84923 | 19809 ft | 351 kts | 305° |
| 2026-04-23 14:13 | 24.47718 | 56.82801 | 19809 ft | 351 kts | 305° |
| 2026-04-23 14:13 | 24.49215 | 56.80683 | 19809 ft | 351 kts | 305° |
| 2026-04-23 14:14 | 24.50708 | 56.78568 | 19807 ft | 351 kts | 305° |
| 2026-04-23 14:14 | 24.52206 | 56.76452 | 19806 ft | 351 kts | 305° |
| 2026-04-23 14:14 | 24.53679 | 56.74325 | 19807 ft | 350 kts | 303° |
| 2026-04-23 14:14 | 24.55102 | 56.72158 | 19808 ft | 349 kts | 303° |
| 2026-04-23 14:15 | 24.56508 | 56.69979 | 19807 ft | 349 kts | 302° |
| 2026-04-23 14:15 | 24.57911 | 56.67796 | 19816 ft | 353 kts | 302° |
| 2026-04-23 14:15 | 24.59353 | 56.65553 | 19732 ft | 365 kts | 302° |
| 2026-04-23 14:15 | 24.60827 | 56.63266 | 19435 ft | 367 kts | 303° |
| 2026-04-23 14:16 | 24.62302 | 56.60988 | 19009 ft | 366 kts | 303° |
| 2026-04-23 14:16 | 24.63778 | 56.58711 | 18606 ft | 365 kts | 303° |
| 2026-04-23 14:16 | 24.65247 | 56.56449 | 18204 ft | 362 kts | 303° |
| 2026-04-23 14:16 | 24.66702 | 56.54207 | 17756 ft | 359 kts | 303° |
| 2026-04-23 14:17 | 24.68145 | 56.51983 | 17296 ft | 356 kts | 303° |
| 2026-04-23 14:17 | 24.69580 | 56.49773 | 16846 ft | 354 kts | 303° |
| 2026-04-23 14:17 | 24.71011 | 56.47581 | 16400 ft | 352 kts | 303° |
| 2026-04-23 14:17 | 24.72428 | 56.45401 | 15958 ft | 349 kts | 303° |
| 2026-04-23 14:18 | 24.73832 | 56.43229 | 15516 ft | 348 kts | 302° |
| 2026-04-23 14:18 | 24.75226 | 56.41064 | 15095 ft | 346 kts | 302° |
| 2026-04-23 14:18 | 24.76597 | 56.38937 | 14681 ft | 345 kts | 302° |
| 2026-04-23 14:18 | 24.78000 | 56.36763 | 14256 ft | 343 kts | 302° |
| 2026-04-23 14:19 | 24.79379 | 56.34627 | 13844 ft | 342 kts | 302° |
| 2026-04-23 14:19 | 24.80736 | 56.32526 | 13419 ft | 341 kts | 302° |
| 2026-04-23 14:19 | 24.82125 | 56.30374 | 12956 ft | 340 kts | 302° |
| 2026-04-23 14:19 | 24.83473 | 56.28285 | 12513 ft | 339 kts | 302° |
| 2026-04-23 14:20 | 24.84833 | 56.26175 | 12072 ft | 338 kts | 302° |
| 2026-04-23 14:20 | 24.86208 | 56.24043 | 11628 ft | 337 kts | 302° |
| 2026-04-23 14:20 | 24.87497 | 56.21938 | 11192 ft | 334 kts | 296° |
| 2026-04-23 14:20 | 24.88486 | 56.19643 | 10771 ft | 331 kts | 290° |
| 2026-04-23 14:21 | 24.89376 | 56.17316 | 10362 ft | 329 kts | 290° |
| 2026-04-23 14:21 | 24.90247 | 56.14992 | 10058 ft | 326 kts | 290° |
| 2026-04-23 14:21 | 24.91121 | 56.12678 | 10027 ft | 329 kts | 290° |
| 2026-04-23 14:21 | 24.92003 | 56.10387 | 10003 ft | 320 kts | 290° |
| 2026-04-23 14:22 | 24.92856 | 56.08181 | 9970 ft | 306 kts | 290° |
| 2026-04-23 14:22 | 24.93675 | 56.06065 | 9886 ft | 296 kts | 290° |
| 2026-04-23 14:22 | 24.94474 | 56.04001 | 9655 ft | 291 kts | 290° |
| 2026-04-23 14:22 | 24.95272 | 56.01953 | 9328 ft | 290 kts | 290° |
| 2026-04-23 14:23 | 24.96061 | 55.99925 | 9045 ft | 286 kts | 290° |
| 2026-04-23 14:23 | 24.96848 | 55.97906 | 8677 ft | 288 kts | 291° |
| 2026-04-23 14:23 | 24.97638 | 55.95886 | 8372 ft | 286 kts | 290° |
| 2026-04-23 14:23 | 24.98419 | 55.93881 | 8075 ft | 284 kts | 290° |
| 2026-04-23 14:24 | 24.99198 | 55.91880 | 7752 ft | 284 kts | 290° |
| 2026-04-23 14:24 | 24.99974 | 55.89887 | 7459 ft | 282 kts | 290° |
| 2026-04-23 14:24 | 25.00747 | 55.87902 | 7157 ft | 282 kts | 291° |
| 2026-04-23 14:24 | 25.01519 | 55.85923 | 6867 ft | 281 kts | 290° |
| 2026-04-23 14:25 | 25.02285 | 55.83956 | 6613 ft | 278 kts | 290° |
| 2026-04-23 14:25 | 25.03047 | 55.82002 | 6343 ft | 277 kts | 291° |
| 2026-04-23 14:25 | 25.03551 | 55.80710 | 6108 ft | 278 kts | 291° |
| 2026-04-23 14:25 | 25.04553 | 55.78131 | 5769 ft | 274 kts | 291° |
| 2026-04-23 14:26 | 25.05298 | 55.76213 | 5513 ft | 272 kts | 290° |
| 2026-04-23 14:26 | 25.06040 | 55.74301 | 5247 ft | 270 kts | 291° |
| 2026-04-23 14:26 | 25.06771 | 55.72421 | 5097 ft | 264 kts | 290° |
| 2026-04-23 14:26 | 25.07488 | 55.70573 | 4826 ft | 262 kts | 291° |
| 2026-04-23 14:27 | 25.08200 | 55.68741 | 4654 ft | 255 kts | 290° |
| 2026-04-23 14:27 | 25.08884 | 55.66980 | 4559 ft | 245 kts | 290° |
| 2026-04-23 14:27 | 25.09541 | 55.65286 | 4485 ft | 235 kts | 291° |
| 2026-04-23 14:27 | 25.09965 | 55.64204 | 4425 ft | 230 kts | 293° |
| 2026-04-23 14:28 | 25.11019 | 55.62227 | 4261 ft | 223 kts | 300° |
| 2026-04-23 14:28 | 25.11836 | 55.60813 | 4207 ft | 221 kts | 300° |
| 2026-04-23 14:28 | 25.12649 | 55.59363 | 3967 ft | 224 kts | 299° |
| 2026-04-23 14:28 | 25.13454 | 55.57907 | 3668 ft | 218 kts | 299° |
| 2026-04-23 14:29 | 25.14217 | 55.56522 | 3404 ft | 205 kts | 299° |
| 2026-04-23 14:29 | 25.14933 | 55.55219 | 3154 ft | 192 kts | 300° |
| 2026-04-23 14:29 | 25.15383 | 55.54401 | 3023 ft | 184 kts | 299° |
| 2026-04-23 14:29 | 25.16032 | 55.53218 | 2799 ft | 176 kts | 300° |
| 2026-04-23 14:30 | 25.16654 | 55.52087 | 2582 ft | 168 kts | 301° |
| 2026-04-23 14:30 | 25.17246 | 55.51009 | 2337 ft | 162 kts | 303° |
| 2026-04-23 14:30 | 25.17825 | 55.49960 | 2180 ft | 159 kts | 303° |
| 2026-04-23 14:30 | 25.18405 | 55.48907 | 1949 ft | 159 kts | 303° |
| 2026-04-23 14:31 | 25.18969 | 55.47879 | 1730 ft | 154 kts | 305° |
| 2026-04-23 14:31 | 25.19526 | 55.46872 | 1569 ft | 156 kts | 304° |
| 2026-04-23 14:31 | 25.20097 | 55.45833 | 1349 ft | 159 kts | 303° |
| 2026-04-23 14:31 | 25.20665 | 55.44801 | 1151 ft | 156 kts | 304° |
| 2026-04-23 14:32 | 25.21214 | 55.43779 | 1017 ft | 156 kts | 303° |
| 2026-04-23 14:32 | 25.21760 | 55.42760 | 813 ft | 152 kts | 304° |
| 2026-04-23 14:32 | 25.22333 | 55.41754 | 634 ft | 157 kts | 304° |
| 2026-04-23 14:32 | 25.22892 | 55.40740 | 385 ft | 151 kts | 303° |
| 2026-04-23 14:33 | 25.23432 | 55.39767 | 126 ft | 148 kts | 305° |
| 2026-04-23 14:33 | 25.23961 | 55.38822 | 29 ft | 130 kts | 301° |
| 2026-04-23 14:33 | 25.24357 | 55.38108 | 30 ft | 88 kts | 301° |
| 2026-04-23 14:33 | 25.24608 | 55.37655 | 27 ft | 59 kts | 301° |
| 2026-04-23 14:34 | 25.24766 | 55.37328 | 28 ft | 38 kts | 286° |
| 2026-04-23 14:34 | 25.24789 | 55.37066 | 24 ft | 21 kts | 272° |
| 2026-04-23 14:34 | 25.24808 | 55.36938 | 25 ft | 14 kts | 296° |
| 2026-04-23 14:34 | 25.24850 | 55.36844 | 24 ft | 13 kts | 290° |
| 2026-04-23 14:35 | 25.24871 | 55.36747 | 22 ft | 13 kts | 282° |
| 2026-04-23 14:35 | 25.24900 | 55.36655 | 22 ft | 13 kts | 296° |
| 2026-04-23 14:35 | 25.24944 | 55.36572 | 23 ft | 13 kts | 302° |
| 2026-04-23 14:35 | 25.24990 | 55.36491 | 21 ft | 12 kts | 302° |
| 2026-04-23 14:36 | 25.25034 | 55.36413 | 22 ft | 12 kts | 302° |
| 2026-04-23 14:36 | 25.25081 | 55.36331 | 21 ft | 14 kts | 302° |
| 2026-04-23 14:36 | 25.25134 | 55.36236 | 22 ft | 15 kts | 302° |
| 2026-04-23 14:36 | 25.25190 | 55.36136 | 22 ft | 15 kts | 302° |
| 2026-04-23 14:37 | 25.25242 | 55.36044 | 21 ft | 14 kts | 302° |
| 2026-04-23 14:37 | 25.25293 | 55.35954 | 21 ft | 13 kts | 302° |
| 2026-04-23 14:37 | 25.25341 | 55.35868 | 20 ft | 13 kts | 302° |
| 2026-04-23 14:37 | 25.25388 | 55.35785 | 22 ft | 13 kts | 302° |
| 2026-04-23 14:38 | 25.25434 | 55.35704 | 21 ft | 12 kts | 301° |
| 2026-04-23 14:38 | 25.25478 | 55.35624 | 20 ft | 12 kts | 302° |
| 2026-04-23 14:38 | 25.25521 | 55.35547 | 20 ft | 12 kts | 302° |
| 2026-04-23 14:38 | 25.25568 | 55.35464 | 21 ft | 15 kts | 302° |
| 2026-04-23 14:39 | 25.25624 | 55.35365 | 21 ft | 15 kts | 302° |
| 2026-04-23 14:39 | 25.25679 | 55.35266 | 20 ft | 15 kts | 301° |
| 2026-04-23 14:39 | 25.25731 | 55.35173 | 20 ft | 14 kts | 302° |
| 2026-04-23 14:39 | 25.25777 | 55.35090 | 22 ft | 10 kts | 300° |
| 2026-04-23 14:40 | 25.25830 | 55.35048 | 20 ft | 10 kts | 6° |
| 2026-04-23 14:40 | 25.25890 | 55.35083 | 20 ft | 10 kts | 31° |
| 2026-04-23 14:40 | 25.25947 | 55.35121 | 21 ft | 10 kts | 31° |
| 2026-04-23 14:40 | 25.26040 | 55.35184 | 23 ft | 23 kts | 31° |
| 2026-04-23 14:41 | 25.26167 | 55.35268 | 23 ft | 20 kts | 31° |
| 2026-04-23 14:41 | 25.26283 | 55.35346 | 28 ft | 19 kts | 32° |
| 2026-04-23 14:41 | 25.26399 | 55.35424 | 24 ft | 18 kts | 31° |
| 2026-04-23 14:41 | 25.26477 | 55.35476 | 21 ft | 13 kts | 32° |
| 2026-04-23 14:42 | 25.26493 | 55.35559 | 21 ft | 13 kts | 120° |
| 2026-04-23 14:42 | 25.26446 | 55.35641 | 23 ft | 12 kts | 122° |
| 2026-04-23 14:42 | 25.26402 | 55.35720 | 21 ft | 12 kts | 121° |
| 2026-04-23 14:42 | 25.26359 | 55.35797 | 23 ft | 12 kts | 122° |
| 2026-04-23 14:43 | 25.26316 | 55.35872 | 21 ft | 11 kts | 122° |
| 2026-04-23 14:43 | 25.26287 | 55.35925 | 21 ft | 5 kts | 122° |
| 2026-04-23 14:43 | 25.26270 | 55.35954 | 21 ft | 3 kts | 122° |